Traphill, North Carolina
Current Conditions -  °F | °C
As of 4:55 AM on Friday 28 Nov 2014 (Local Time) from KUKF Reporting Station
Broken Clouds Broken Clouds  
Wind Chill: 23°   Ceiling: 4200
Heat Index: 30°   Visibility: 10mi
Dew Point: 18°   Wind: 8mph
Humidity: 60%   Direction: 300°WNW
Pressure: 30.35"   Gusts: NA
Location:  36.35°N, 81.03°W
Report Text: KUKF 280955Z AUTO 30007KT 10SM BKN042 M01/M08 A3035 RMK AO2
Loading
Personal Weather Stations






























Interactive Weather Map New forecast layout! Learn more

10-Day Weather Forecast

Advertisements
Track Severe Weather on mobile